sensor_id;sensor_type;location;lat;lon;timestamp;pressure;altitude;pressure_sealevel;temperature;humidity
58973;BME280;44750;52.040;7.472;2022-11-25T00:00:35;99858.19;;;6.12;23.76
58973;BME280;44750;52.040;7.472;2022-11-25T00:05:36;99856.19;;;6.14;22.79
58973;BME280;44750;52.040;7.472;2022-11-25T00:10:36;99882.72;;;6.37;21.26
58973;BME280;44750;52.040;7.472;2022-11-25T00:15:36;99881.72;;;6.48;21.68
58973;BME280;44750;52.040;7.472;2022-11-25T00:20:36;99836.34;;;6.35;22.58
58973;BME280;44750;52.040;7.472;2022-11-25T00:25:37;99872.88;;;6.56;22.67
58973;BME280;44750;52.040;7.472;2022-11-25T00:30:37;99840.13;;;6.42;23.98
58973;BME280;44750;52.040;7.472;2022-11-25T00:35:37;99825.28;;;6.38;24.69
58973;BME280;44750;52.040;7.472;2022-11-25T00:40:37;99825.59;;;6.35;24.97
58973;BME280;44750;52.040;7.472;2022-11-25T00:45:38;99820.78;;;6.29;24.12
58973;BME280;44750;52.040;7.472;2022-11-25T00:50:38;99818.97;;;6.29;23.52
58973;BME280;44750;52.040;7.472;2022-11-25T00:55:38;99824.19;;;6.31;22.61
58973;BME280;44750;52.040;7.472;2022-11-25T01:00:38;99834.63;;;6.34;21.29
58973;BME280;44750;52.040;7.472;2022-11-25T01:05:38;99823.63;;;6.27;19.70
58973;BME280;44750;52.040;7.472;2022-11-25T01:10:39;99846.94;;;6.36;18.61
58973;BME280;44750;52.040;7.472;2022-11-25T01:15:39;99854.41;;;6.43;17.79
58973;BME280;44750;52.040;7.472;2022-11-25T01:20:39;99860.63;;;6.43;16.71
58973;BME280;44750;52.040;7.472;2022-11-25T01:25:39;99866.72;;;6.45;16.03
58973;BME280;44750;52.040;7.472;2022-11-25T01:30:39;99848.47;;;6.39;15.64
58973;BME280;44750;52.040;7.472;2022-11-25T01:35:40;99877.72;;;6.52;14.91
58973;BME280;44750;52.040;7.472;2022-11-25T01:40:40;99879.56;;;6.51;14.38
58973;BME280;44750;52.040;7.472;2022-11-25T01:45:40;99879.28;;;6.55;13.28
58973;BME280;44750;52.040;7.472;2022-11-25T01:50:41;99899.59;;;6.67;12.20
58973;BME280;44750;52.040;7.472;2022-11-25T01:55:47;99917.56;;;6.76;10.84
58973;BME280;44750;52.040;7.472;2022-11-25T02:00:48;99910.88;;;6.80;10.38
58973;BME280;44750;52.040;7.472;2022-11-25T02:05:51;99918.22;;;6.88;9.90
58973;BME280;44750;52.040;7.472;2022-11-25T02:10:54;99915.06;;;6.93;8.98
58973;BME280;44750;52.040;7.472;2022-11-25T02:15:54;99922.22;;;7.02;8.71
58973;BME280;44750;52.040;7.472;2022-11-25T02:20:54;99931.69;;;7.06;8.22
58973;BME280;44750;52.040;7.472;2022-11-25T02:25:55;99926.31;;;7.06;7.86
58973;BME280;44750;52.040;7.472;2022-11-25T02:30:56;99924.34;;;7.08;7.32
58973;BME280;44750;52.040;7.472;2022-11-25T02:35:59;99933.34;;;7.17;6.69
58973;BME280;44750;52.040;7.472;2022-11-25T02:41:02;99944.22;;;7.25;6.14
58973;BME280;44750;52.040;7.472;2022-11-25T02:46:07;99932.75;;;7.23;6.01
58973;BME280;44750;52.040;7.472;2022-11-25T02:51:10;99939.22;;;7.30;5.24
58973;BME280;44750;52.040;7.472;2022-11-25T02:56:12;99955.91;;;7.34;4.45
58973;BME280;44750;52.040;7.472;2022-11-25T03:01:13;99968.63;;;7.42;3.93
58973;BME280;44750;52.040;7.472;2022-11-25T03:06:13;99950.09;;;7.39;4.13
58973;BME280;44750;52.040;7.472;2022-11-25T03:11:14;99962.94;;;7.45;3.72
58973;BME280;44750;52.040;7.472;2022-11-25T03:16:14;99954.63;;;7.38;3.17
58973;BME280;44750;52.040;7.472;2022-11-25T03:21:14;99970.84;;;7.46;2.41
58973;BME280;44750;52.040;7.472;2022-11-25T03:26:14;99969.59;;;7.50;2.22
58973;BME280;44750;52.040;7.472;2022-11-25T03:31:14;99971.41;;;7.50;1.97
58973;BME280;44750;52.040;7.472;2022-11-25T03:36:15;99987.13;;;7.55;1.32
58973;BME280;44750;52.040;7.472;2022-11-25T03:41:15;99986.09;;;7.56;0.23
58973;BME280;44750;52.040;7.472;2022-11-25T03:46:15;100010.47;;;7.64;0.00
58973;BME280;44750;52.040;7.472;2022-11-25T03:51:15;100015.13;;;7.62;0.00
58973;BME280;44750;52.040;7.472;2022-11-25T03:56:16;100024.31;;;7.69;0.00
58973;BME280;44750;52.040;7.472;2022-11-25T04:01:16;100024.22;;;7.61;0.00
58973;BME280;44750;52.040;7.472;2022-11-25T04:06:16;100045.84;;;7.69;0.00
58973;BME280;44750;52.040;7.472;2022-11-25T04:11:17;100065.41;;;7.71;0.00
58973;BME280;44750;52.040;7.472;2022-11-25T04:16:22;100064.28;;;7.74;0.00
58973;BME280;44750;52.040;7.472;2022-11-25T04:21:23;100081.44;;;7.73;0.00
58973;BME280;44750;52.040;7.472;2022-11-25T04:26:24;100108.38;;;7.73;0.00
58973;BME280;44750;52.040;7.472;2022-11-25T04:31:24;100129.50;;;7.77;0.00
58973;BME280;44750;52.040;7.472;2022-11-25T04:36:24;100137.84;;;7.74;0.00
58973;BME280;44750;52.040;7.472;2022-11-25T04:41:24;100174.00;;;7.81;0.00
58973;BME280;44750;52.040;7.472;2022-11-25T04:46:33;100212.38;;;7.93;0.00
58973;BME280;44750;52.040;7.472;2022-11-25T04:51:35;100225.88;;;7.93;0.00
58973;BME280;44750;52.040;7.472;2022-11-25T04:56:35;100244.56;;;7.95;0.00
58973;BME280;44750;52.040;7.472;2022-11-25T05:01:35;100267.28;;;7.92;0.00
58973;BME280;44750;52.040;7.472;2022-11-25T05:06:35;100289.69;;;7.93;0.00
58973;BME280;44750;52.040;7.472;2022-11-25T05:11:36;100303.44;;;7.90;0.00
58973;BME280;44750;52.040;7.472;2022-11-25T05:16:36;100316.47;;;7.94;0.00
58973;BME280;44750;52.040;7.472;2022-11-25T05:21:36;100331.50;;;7.97;0.00
58973;BME280;44750;52.040;7.472;2022-11-25T05:26:36;100351.66;;;7.93;0.00
58973;BME280;44750;52.040;7.472;2022-11-25T05:31:36;100367.28;;;7.89;0.00
58973;BME280;44750;52.040;7.472;2022-11-25T05:36:37;100360.88;;;7.90;0.00
58973;BME280;44750;52.040;7.472;2022-11-25T05:41:37;100376.50;;;7.86;0.00
58973;BME280;44750;52.040;7.472;2022-11-25T05:46:37;100402.88;;;7.93;0.00
58973;BME280;44750;52.040;7.472;2022-11-25T05:51:37;100421.31;;;7.97;0.00
58973;BME280;44750;52.040;7.472;2022-11-25T05:56:38;100450.25;;;7.95;0.00
58973;BME280;44750;52.040;7.472;2022-11-25T06:01:39;100470.97;;;7.95;0.00
58973;BME280;44750;52.040;7.472;2022-11-25T06:06:39;100493.38;;;7.95;0.00
58973;BME280;44750;52.040;7.472;2022-11-25T06:11:39;100510.69;;;7.93;0.00
58973;BME280;44750;52.040;7.472;2022-11-25T06:16:39;100542.63;;;7.97;0.00
58973;BME280;44750;52.040;7.472;2022-11-25T06:21:40;100569.44;;;7.99;0.00
58973;BME280;44750;52.040;7.472;2022-11-25T06:26:40;100583.19;;;8.06;0.00
58973;BME280;44750;52.040;7.472;2022-11-25T06:31:40;100606.47;;;8.07;0.00
58973;BME280;44750;52.040;7.472;2022-11-25T06:36:40;100631.03;;;8.13;0.00
58973;BME280;44750;52.040;7.472;2022-11-25T06:41:41;100648.91;;;8.14;0.00
58973;BME280;44750;52.040;7.472;2022-11-25T06:46:41;100669.34;;;8.17;0.00
58973;BME280;44750;52.040;7.472;2022-11-25T06:51:41;100674.88;;;8.15;0.00
58973;BME280;44750;52.040;7.472;2022-11-25T06:56:41;100702.56;;;8.17;0.00
58973;BME280;44750;52.040;7.472;2022-11-25T07:01:41;100699.00;;;8.17;0.00
58973;BME280;44750;52.040;7.472;2022-11-25T07:06:43;100743.59;;;8.21;0.00
58973;BME280;44750;52.040;7.472;2022-11-25T07:11:44;100756.94;;;8.23;0.00
58973;BME280;44750;52.040;7.472;2022-11-25T07:16:45;100770.97;;;8.26;0.00
58973;BME280;44750;52.040;7.472;2022-11-25T07:21:45;100786.31;;;8.26;0.00
58973;BME280;44750;52.040;7.472;2022-11-25T07:26:46;100811.31;;;8.28;0.00
58973;BME280;44750;52.040;7.472;2022-11-25T07:31:46;100803.91;;;8.20;0.00
58973;BME280;44750;52.040;7.472;2022-11-25T07:36:48;100822.34;;;8.25;0.00
58973;BME280;44750;52.040;7.472;2022-11-25T07:41:50;100841.41;;;8.33;0.00
58973;BME280;44750;52.040;7.472;2022-11-25T07:46:50;100844.53;;;8.28;0.00
58973;BME280;44750;52.040;7.472;2022-11-25T07:51:52;100874.50;;;8.35;0.00
58973;BME280;44750;52.040;7.472;2022-11-25T07:56:54;100883.59;;;8.34;0.00
58973;BME280;44750;52.040;7.472;2022-11-25T08:01:54;100889.13;;;8.32;0.00
58973;BME280;44750;52.040;7.472;2022-11-25T08:06:55;100889.91;;;8.23;0.00
58973;BME280;44750;52.040;7.472;2022-11-25T08:11:55;100907.53;;;8.27;0.00
58973;BME280;44750;52.040;7.472;2022-11-25T08:16:55;100921.91;;;8.28;0.00
58973;BME280;44750;52.040;7.472;2022-11-25T08:21:55;100945.28;;;8.27;0.00
58973;BME280;44750;52.040;7.472;2022-11-25T08:26:56;100951.44;;;8.29;0.00
58973;BME280;44750;52.040;7.472;2022-11-25T08:31:56;100962.34;;;8.28;0.00
58973;BME280;44750;52.040;7.472;2022-11-25T08:36:57;100966.53;;;8.20;0.00
58973;BME280;44750;52.040;7.472;2022-11-25T08:41:57;100983.53;;;8.32;0.00
58973;BME280;44750;52.040;7.472;2022-11-25T08:46:57;100996.03;;;8.33;0.00
58973;BME280;44750;52.040;7.472;2022-11-25T08:51:57;101004.44;;;8.40;0.00
58973;BME280;44750;52.040;7.472;2022-11-25T08:56:57;101016.19;;;8.50;0.00
58973;BME280;44750;52.040;7.472;2022-11-25T09:01:58;101023.75;;;8.57;0.00
58973;BME280;44750;52.040;7.472;2022-11-25T09:06:59;101050.25;;;8.73;0.00
58973;BME280;44750;52.040;7.472;2022-11-25T09:11:59;101057.19;;;8.86;0.00
58973;BME280;44750;52.040;7.472;2022-11-25T09:17:00;101058.47;;;8.92;0.00
58973;BME280;44750;52.040;7.472;2022-11-25T09:22:00;101079.63;;;9.18;0.00
58973;BME280;44750;52.040;7.472;2022-11-25T09:27:00;101078.00;;;9.36;0.00
58973;BME280;44750;52.040;7.472;2022-11-25T09:32:00;101060.78;;;9.28;0.00
58973;BME280;44750;52.040;7.472;2022-11-25T09:37:01;101085.72;;;9.41;0.00
58973;BME280;44750;52.040;7.472;2022-11-25T09:42:14;101076.66;;;9.52;0.00
58973;BME280;44750;52.040;7.472;2022-11-25T09:58:58;101069.06;;;9.86;0.00
58973;BME280;44750;52.040;7.472;2022-11-25T10:04:04;101041.72;;;9.90;0.00
58973;BME280;44750;52.040;7.472;2022-11-25T10:09:17;101046.88;;;10.02;0.00
58973;BME280;44750;52.040;7.472;2022-11-25T10:14:38;101006.72;;;9.98;0.00
58973;BME280;44750;52.040;7.472;2022-11-25T10:24:42;100873.25;;;9.50;0.00
58973;BME280;44750;52.040;7.472;2022-11-25T10:29:46;100955.19;;;10.09;0.00
58973;BME280;44750;52.040;7.472;2022-11-25T10:34:53;100919.16;;;10.18;0.00
58973;BME280;44750;52.040;7.472;2022-11-25T10:39:56;100910.59;;;10.43;0.00
58973;BME280;44750;52.040;7.472;2022-11-25T10:44:56;100858.69;;;10.47;0.00
58973;BME280;44750;52.040;7.472;2022-11-25T10:50:27;100804.97;;;10.52;0.00
58973;BME280;44750;52.040;7.472;2022-11-25T10:55:32;100747.69;;;10.57;0.00
58973;BME280;44750;52.040;7.472;2022-11-25T11:00:35;100729.22;;;10.88;0.00
58973;BME280;44750;52.040;7.472;2022-11-25T11:05:46;100656.75;;;10.82;0.00
58973;BME280;44750;52.040;7.472;2022-11-25T11:11:08;100592.09;;;10.87;0.00
58973;BME280;44750;52.040;7.472;2022-11-25T11:16:32;100541.38;;;10.90;0.00
58973;BME280;44750;52.040;7.472;2022-11-25T11:21:37;100464.91;;;10.69;0.00
58973;BME280;44750;52.040;7.472;2022-11-25T11:26:38;100426.91;;;10.79;0.00
58973;BME280;44750;52.040;7.472;2022-11-25T11:31:43;100366.94;;;10.66;0.00
58973;BME280;44750;52.040;7.472;2022-11-25T11:47:37;100291.59;;;10.96;10.74
58973;BME280;44750;52.040;7.472;2022-11-25T11:52:49;100280.75;;;11.04;16.55
58973;BME280;44750;52.040;7.472;2022-11-25T12:03:56;100215.75;;;11.12;24.83
58973;BME280;44750;52.040;7.472;2022-11-25T12:09:04;100187.31;;;11.08;27.43
58973;BME280;44750;52.040;7.472;2022-11-25T12:19:37;100169.84;;;11.27;34.51
58973;BME280;44750;52.040;7.472;2022-11-25T12:30:02;100132.09;;;11.26;41.91
58973;BME280;44750;52.040;7.472;2022-11-25T12:40:19;100109.25;;;11.20;45.37
58973;BME280;44750;52.040;7.472;2022-11-25T12:45:24;100127.84;;;11.31;45.00
58973;BME280;44750;52.040;7.472;2022-11-25T12:50:41;100135.09;;;11.47;44.82
58973;BME280;44750;52.040;7.472;2022-11-25T12:55:44;100108.19;;;11.46;46.62
58973;BME280;44750;52.040;7.472;2022-11-25T13:11:33;100099.94;;;11.06;51.47
58973;BME280;44750;52.040;7.472;2022-11-25T13:16:39;100105.38;;;11.14;50.33
58973;BME280;44750;52.040;7.472;2022-11-25T13:22:01;100113.16;;;11.17;50.56
58973;BME280;44750;52.040;7.472;2022-11-25T13:27:01;100106.50;;;11.36;51.57
58973;BME280;44750;52.040;7.472;2022-11-25T13:32:10;100100.28;;;11.28;53.71
58973;BME280;44750;52.040;7.472;2022-11-25T13:37:39;100091.81;;;11.23;55.58
58973;BME280;44750;52.040;7.472;2022-11-25T13:42:43;100096.38;;;11.14;55.39
58973;BME280;44750;52.040;7.472;2022-11-25T13:47:47;100109.09;;;11.13;55.40
58973;BME280;44750;52.040;7.472;2022-11-25T13:52:58;100128.91;;;11.14;55.60
58973;BME280;44750;52.040;7.472;2022-11-25T13:58:12;100121.97;;;11.11;55.65
58973;BME280;44750;52.040;7.472;2022-11-25T14:08:54;100137.00;;;11.22;56.35
58973;BME280;44750;52.040;7.472;2022-11-25T14:14:07;100142.59;;;11.20;56.78
58973;BME280;44750;52.040;7.472;2022-11-25T14:19:40;100151.41;;;11.23;56.26
58973;BME280;44750;52.040;7.472;2022-11-25T14:24:49;100140.41;;;11.16;57.96
58973;BME280;44750;52.040;7.472;2022-11-25T14:29:53;100152.75;;;11.10;58.43
58973;BME280;44750;52.040;7.472;2022-11-25T14:35:01;100145.34;;;11.04;58.80
58973;BME280;44750;52.040;7.472;2022-11-25T14:40:16;100156.84;;;10.98;58.91
58973;BME280;44750;52.040;7.472;2022-11-25T14:45:26;100162.59;;;10.95;58.62
58973;BME280;44750;52.040;7.472;2022-11-25T14:50:27;100167.31;;;10.93;58.19
58973;BME280;44750;52.040;7.472;2022-11-25T14:55:29;100188.63;;;10.79;57.91
58973;BME280;44750;52.040;7.472;2022-11-25T15:00:30;100191.69;;;10.76;56.62
58973;BME280;44750;52.040;7.472;2022-11-25T15:05:36;100215.19;;;10.67;55.14
58973;BME280;44750;52.040;7.472;2022-11-25T15:10:54;100232.47;;;10.66;53.57
58973;BME280;44750;52.040;7.472;2022-11-25T15:16:02;100240.41;;;10.60;51.95
58973;BME280;44750;52.040;7.472;2022-11-25T15:21:04;100263.88;;;10.59;49.74
58973;BME280;44750;52.040;7.472;2022-11-25T15:26:15;100278.94;;;10.62;47.80
58973;BME280;44750;52.040;7.472;2022-11-25T15:31:18;100292.47;;;10.62;47.05
58973;BME280;44750;52.040;7.472;2022-11-25T15:36:23;100308.06;;;10.60;45.48
58973;BME280;44750;52.040;7.472;2022-11-25T15:41:31;100312.78;;;10.58;44.56
58973;BME280;44750;52.040;7.472;2022-11-25T15:46:34;100330.72;;;10.59;43.60
58973;BME280;44750;52.040;7.472;2022-11-25T15:51:37;100340.34;;;10.53;43.01
58973;BME280;44750;52.040;7.472;2022-11-25T15:56:49;100361.81;;;10.54;41.29
58973;BME280;44750;52.040;7.472;2022-11-25T16:01:50;100393.97;;;10.58;40.40
58973;BME280;44750;52.040;7.472;2022-11-25T16:06:55;100395.50;;;10.60;38.81
58973;BME280;44750;52.040;7.472;2022-11-25T16:12:06;100410.72;;;10.53;36.93
58973;BME280;44750;52.040;7.472;2022-11-25T16:17:10;100429.34;;;10.38;33.68
58973;BME280;44750;52.040;7.472;2022-11-25T16:22:17;100470.09;;;10.36;29.99
58973;BME280;44750;52.040;7.472;2022-11-25T16:27:20;100491.03;;;10.34;26.91
58973;BME280;44750;52.040;7.472;2022-11-25T16:32:27;100493.81;;;10.25;24.26
58973;BME280;44750;52.040;7.472;2022-11-25T16:37:28;100519.41;;;10.12;22.62
58973;BME280;44750;52.040;7.472;2022-11-25T16:42:28;100547.94;;;10.07;20.99
58973;BME280;44750;52.040;7.472;2022-11-25T16:47:28;100557.03;;;9.87;19.53
58973;BME280;44750;52.040;7.472;2022-11-25T16:52:28;100574.88;;;9.80;17.39
58973;BME280;44750;52.040;7.472;2022-11-25T16:57:29;100597.25;;;9.73;16.08
58973;BME280;44750;52.040;7.472;2022-11-25T17:02:29;100611.66;;;9.63;14.99
58973;BME280;44750;52.040;7.472;2022-11-25T17:07:29;100640.13;;;9.58;12.72
58973;BME280;44750;52.040;7.472;2022-11-25T17:12:31;100662.22;;;9.53;11.93
58973;BME280;44750;52.040;7.472;2022-11-25T17:17:32;100690.06;;;9.53;9.57
58973;BME280;44750;52.040;7.472;2022-11-25T17:22:33;100711.69;;;9.53;8.07
58973;BME280;44750;52.040;7.472;2022-11-25T17:27:33;100723.78;;;9.49;7.14
58973;BME280;44750;52.040;7.472;2022-11-25T17:32:34;100749.66;;;9.52;5.78
58973;BME280;44750;52.040;7.472;2022-11-25T17:37:34;100758.91;;;9.49;3.99
58973;BME280;44750;52.040;7.472;2022-11-25T17:42:34;100779.66;;;9.49;3.21
58973;BME280;44750;52.040;7.472;2022-11-25T17:47:35;100804.13;;;9.47;2.10
58973;BME280;44750;52.040;7.472;2022-11-25T17:52:35;100829.16;;;9.49;0.20
58973;BME280;44750;52.040;7.472;2022-11-25T17:57:38;100852.75;;;9.47;0.00
58973;BME280;44750;52.040;7.472;2022-11-25T18:02:39;100886.34;;;9.54;0.00
58973;BME280;44750;52.040;7.472;2022-11-25T18:07:40;100885.19;;;9.47;0.00
58973;BME280;44750;52.040;7.472;2022-11-25T18:12:42;100913.78;;;9.50;0.00
58973;BME280;44750;52.040;7.472;2022-11-25T18:17:43;100926.75;;;9.46;0.00
58973;BME280;44750;52.040;7.472;2022-11-25T18:22:44;100920.19;;;9.39;0.00
58973;BME280;44750;52.040;7.472;2022-11-25T18:27:45;100948.03;;;9.40;0.00
58973;BME280;44750;52.040;7.472;2022-11-25T18:32:46;100954.00;;;9.33;0.00
58973;BME280;44750;52.040;7.472;2022-11-25T18:37:48;100973.91;;;9.32;0.00
58973;BME280;44750;52.040;7.472;2022-11-25T18:42:51;100978.31;;;9.24;0.00
58973;BME280;44750;52.040;7.472;2022-11-25T18:47:53;100992.66;;;9.14;0.00
58973;BME280;44750;52.040;7.472;2022-11-25T18:52:53;101008.13;;;9.12;0.00
58973;BME280;44750;52.040;7.472;2022-11-25T18:57:53;101019.72;;;9.03;0.00
58973;BME280;44750;52.040;7.472;2022-11-25T19:02:54;101021.84;;;8.99;0.00
58973;BME280;44750;52.040;7.472;2022-11-25T19:07:55;101036.34;;;8.98;0.00
58973;BME280;44750;52.040;7.472;2022-11-25T19:12:59;101070.44;;;8.99;0.00
58973;BME280;44750;52.040;7.472;2022-11-25T19:18:01;101078.97;;;8.95;0.00
58973;BME280;44750;52.040;7.472;2022-11-25T19:23:21;101092.28;;;8.86;0.00
58973;BME280;44750;52.040;7.472;2022-11-25T19:28:22;101106.16;;;8.82;0.00
58973;BME280;44750;52.040;7.472;2022-11-25T19:33:27;101118.81;;;8.81;0.00
58973;BME280;44750;52.040;7.472;2022-11-25T19:38:29;101128.41;;;8.74;0.00
58973;BME280;44750;52.040;7.472;2022-11-25T19:43:30;101152.69;;;8.74;0.00
58973;BME280;44750;52.040;7.472;2022-11-25T19:48:34;101166.47;;;8.71;0.00
58973;BME280;44750;52.040;7.472;2022-11-25T19:53:35;101185.13;;;8.63;0.00
58973;BME280;44750;52.040;7.472;2022-11-25T19:58:36;101198.91;;;8.60;0.00
58973;BME280;44750;52.040;7.472;2022-11-25T20:03:36;101233.72;;;8.63;0.00
58973;BME280;44750;52.040;7.472;2022-11-25T20:08:36;101240.00;;;8.52;0.00
58973;BME280;44750;52.040;7.472;2022-11-25T20:13:36;101247.63;;;8.47;0.00
58973;BME280;44750;52.040;7.472;2022-11-25T20:18:37;101255.47;;;8.39;0.00
58973;BME280;44750;52.040;7.472;2022-11-25T20:23:39;101277.53;;;8.44;0.00
58973;BME280;44750;52.040;7.472;2022-11-25T20:28:42;101307.81;;;8.47;0.00
58973;BME280;44750;52.040;7.472;2022-11-25T20:33:42;101315.03;;;8.35;0.00
58973;BME280;44750;52.040;7.472;2022-11-25T20:38:48;101321.91;;;8.28;0.00
58973;BME280;44750;52.040;7.472;2022-11-25T20:43:50;101339.56;;;8.32;0.00
58973;BME280;44750;52.040;7.472;2022-11-25T20:48:53;101353.06;;;8.32;0.00
58973;BME280;44750;52.040;7.472;2022-11-25T20:53:56;101364.94;;;8.30;0.00
58973;BME280;44750;52.040;7.472;2022-11-25T20:58:57;101370.81;;;8.24;0.00
58973;BME280;44750;52.040;7.472;2022-11-25T21:03:57;101377.34;;;8.21;0.00
58973;BME280;44750;52.040;7.472;2022-11-25T21:08:59;101389.44;;;8.15;0.00
58973;BME280;44750;52.040;7.472;2022-11-25T21:14:00;101400.38;;;8.02;0.00
58973;BME280;44750;52.040;7.472;2022-11-25T21:19:00;101405.47;;;7.94;0.00
58973;BME280;44750;52.040;7.472;2022-11-25T21:29:18;101443.56;;;7.90;0.00
58973;BME280;44750;52.040;7.472;2022-11-25T21:34:18;101453.72;;;7.86;0.00
58973;BME280;44750;52.040;7.472;2022-11-25T21:39:22;101468.41;;;7.82;0.00
58973;BME280;44750;52.040;7.472;2022-11-25T21:44:34;101490.22;;;7.79;0.00
58973;BME280;44750;52.040;7.472;2022-11-25T21:49:35;101503.19;;;7.74;0.00
58973;BME280;44750;52.040;7.472;2022-11-25T21:54:35;101510.63;;;7.70;0.00
58973;BME280;44750;52.040;7.472;2022-11-25T21:59:35;101521.66;;;7.67;0.00
58973;BME280;44750;52.040;7.472;2022-11-25T22:04:36;101533.63;;;7.63;0.00
58973;BME280;44750;52.040;7.472;2022-11-25T22:09:36;101542.91;;;7.59;0.00
58973;BME280;44750;52.040;7.472;2022-11-25T22:14:38;101544.97;;;7.55;0.00
58973;BME280;44750;52.040;7.472;2022-11-25T22:19:38;101546.28;;;7.49;0.00
58973;BME280;44750;52.040;7.472;2022-11-25T22:24:38;101557.50;;;7.43;0.00
58973;BME280;44750;52.040;7.472;2022-11-25T22:29:39;101566.78;;;7.39;0.00
58973;BME280;44750;52.040;7.472;2022-11-25T22:34:39;101581.31;;;7.36;0.00
58973;BME280;44750;52.040;7.472;2022-11-25T22:39:43;101587.91;;;7.32;0.00
58973;BME280;44750;52.040;7.472;2022-11-25T22:44:45;101594.06;;;7.22;0.00
58973;BME280;44750;52.040;7.472;2022-11-25T22:49:47;101618.41;;;7.20;0.00
58973;BME280;44750;52.040;7.472;2022-11-25T22:54:48;101636.50;;;7.18;0.00
58973;BME280;44750;52.040;7.472;2022-11-25T22:59:49;101654.69;;;7.14;0.00
58973;BME280;44750;52.040;7.472;2022-11-25T23:04:54;101681.31;;;7.19;0.00
58973;BME280;44750;52.040;7.472;2022-11-25T23:09:54;101696.63;;;7.18;0.00
58973;BME280;44750;52.040;7.472;2022-11-25T23:14:55;101706.50;;;7.18;0.00
58973;BME280;44750;52.040;7.472;2022-11-25T23:19:55;101708.03;;;7.09;0.00
58973;BME280;44750;52.040;7.472;2022-11-25T23:24:55;101721.38;;;7.11;0.00
58973;BME280;44750;52.040;7.472;2022-11-25T23:29:55;101733.44;;;7.05;0.00
58973;BME280;44750;52.040;7.472;2022-11-25T23:34:55;101730.50;;;6.95;0.00
58973;BME280;44750;52.040;7.472;2022-11-25T23:39:56;101734.88;;;6.83;0.00
58973;BME280;44750;52.040;7.472;2022-11-25T23:44:56;101746.81;;;6.79;0.00
58973;BME280;44750;52.040;7.472;2022-11-25T23:49:57;101771.81;;;6.81;0.00
58973;BME280;44750;52.040;7.472;2022-11-25T23:54:58;101777.50;;;6.77;0.00
58973;BME280;44750;52.040;7.472;2022-11-25T23:59:58;101793.94;;;6.72;0.00
